Time;durP1;ratioP1;P1;durP2;ratioP2;P2;SDS_P1;SDS_P2;PMS_P1;PMS_P2;Temp;Humidity;BMP_temperature;BMP_pressure;BME280_temperature;BME280_humidity;BME280_pressure;Samples;Min_cycle;Max_cycle;Signal;HPM_P1;HPM_P2
2020/12/11 00:00:00;;;;;;;45.65;17.85;;;;;;;3.02;92.34;99544.59;4977579;28;20038;-77
2020/12/11 00:02:26;;;;;;;49.70;18.65;;;;;;;3.26;92.56;99584.91;4994554;28;20041;-78
2020/12/11 00:04:51;;;;;;;47.55;19.10;;;;;;;3.27;92.94;99602.41;4994735;28;20579;-78
2020/12/11 00:07:16;;;;;;;44.85;18.33;;;;;;;3.36;92.47;99591.50;4994610;28;20062;-77
2020/12/11 00:09:42;;;;;;;44.33;17.83;;;;;;;3.05;92.76;99562.91;4994833;28;20045;-78
2020/12/11 00:12:07;;;;;;;58.97;18.92;;;;;;;3.32;92.20;99601.31;4994568;28;20030;-78
2020/12/11 00:14:32;;;;;;;46.10;18.50;;;;;;;3.26;92.61;99596.28;4994262;28;20050;-76
2020/12/11 00:16:58;;;;;;;47.50;18.30;;;;;;;3.34;92.44;99583.66;4994361;28;20446;-78
2020/12/11 00:19:23;;;;;;;42.97;18.20;;;;;;;3.26;91.94;99562.03;4960616;28;20038;-79
2020/12/11 00:21:49;;;;;;;46.17;19.02;;;;;;;3.38;91.94;99580.00;4977544;28;20030;-77
2020/12/11 00:24:15;;;;;;;48.42;18.95;;;;;;;3.41;91.48;99590.41;4994280;28;20045;-76
2020/12/11 00:26:40;;;;;;;48.38;19.25;;;;;;;3.37;91.64;99587.94;4994457;28;20030;-76
2020/12/11 00:29:06;;;;;;;50.65;20.10;;;;;;;3.35;92.10;99601.19;4994270;28;20030;-76
2020/12/11 00:31:31;;;;;;;49.58;19.23;;;;;;;3.40;91.78;99590.47;4993954;28;20053;-77
2020/12/11 00:33:57;;;;;;;46.80;19.15;;;;;;;3.23;92.12;99588.53;4994130;28;20045;-76
2020/12/11 00:36:24;;;;;;;48.90;20.15;;;;;;;3.24;92.49;99603.41;4993958;28;20038;-76
2020/12/11 00:38:52;;;;;;;40.80;18.10;;;;;;;3.24;92.33;99587.59;4976750;28;20042;-76
2020/12/11 00:41:18;;;;;;;44.65;18.63;;;;;;;3.32;91.66;99598.69;4976419;28;20458;-76
2020/12/11 00:43:44;;;;;;;49.10;19.52;;;;;;;3.33;91.84;99605.69;4993468;28;20066;-76
2020/12/11 00:46:10;;;;;;;41.47;17.60;;;;;;;3.36;91.70;99595.00;4976717;28;20030;-75
2020/12/11 00:48:35;;;;;;;44.28;18.20;;;;;;;3.35;92.25;99598.56;4993767;28;20046;-76
2020/12/11 00:51:00;;;;;;;46.90;19.58;;;;;;;3.05;92.01;99562.91;4994330;28;20050;-76
2020/12/11 00:53:26;;;;;;;44.92;18.77;;;;;;;3.34;91.70;99588.94;4993740;28;20046;-76
2020/12/11 00:55:52;;;;;;;43.67;18.02;;;;;;;3.06;92.27;99541.75;4994006;28;20040;-74
2020/12/11 00:58:18;;;;;;;49.63;19.13;;;;;;;3.32;91.94;99585.50;4976001;28;20105;-77
2020/12/11 01:00:43;;;;;;;42.45;18.05;;;;;;;3.31;91.85;99567.97;4993762;28;20067;-76
2020/12/11 01:03:08;;;;;;;43.47;18.60;;;;;;;3.27;92.29;99582.19;4960291;28;20510;-75
2020/12/11 01:05:35;;;;;;;42.10;18.10;;;;;;;3.31;92.09;99575.03;4959750;28;20031;-78
2020/12/11 01:08:02;;;;;;;47.67;18.70;;;;;;;3.26;92.07;99553.25;4976711;28;20034;-77
2020/12/11 01:10:27;;;;;;;47.80;18.75;;;;;;;3.28;92.17;99578.66;4976166;28;20089;-78
2020/12/11 01:12:52;;;;;;;47.35;17.75;;;;;;;3.23;92.46;99580.63;4993577;28;20035;-77
2020/12/11 01:15:17;;;;;;;39.80;18.02;;;;;;;3.30;92.16;99568.91;4944056;28;20418;-77
2020/12/11 01:17:43;;;;;;;41.50;18.75;;;;;;;3.30;91.33;99568.91;4993377;28;20468;-77
2020/12/11 01:20:08;;;;;;;38.58;15.98;;;;;;;3.42;90.99;99571.03;4960304;28;20030;-74
2020/12/11 01:22:33;;;;;;;39.47;18.38;;;;;;;3.38;90.79;99573.88;4959782;28;20520;-77
2020/12/11 01:24:59;;;;;;;42.45;17.38;;;;;;;3.49;90.66;99566.34;4993431;28;20065;-74
2020/12/11 01:27:24;;;;;;;43.53;17.73;;;;;;;3.44;90.57;99577.09;4959827;28;20559;-75
2020/12/11 01:29:50;;;;;;;40.75;17.88;;;;;;;3.34;90.66;99557.31;4993362;28;20039;-75
2020/12/11 01:32:15;;;;;;;39.65;17.45;;;;;;;3.41;91.14;99579.00;4993021;28;20030;-76
2020/12/11 01:34:41;;;;;;;44.00;17.80;;;;;;;3.35;90.65;99572.19;4976420;28;20034;-76
2020/12/11 01:37:06;;;;;;;44.08;17.80;;;;;;;3.36;90.89;99576.53;4993557;28;20042;-76
2020/12/11 01:39:32;;;;;;;39.08;17.27;;;;;;;3.27;90.65;99566.38;4993564;28;20053;-75
2020/12/11 01:41:58;;;;;;;40.17;17.85;;;;;;;3.45;90.75;99580.56;4993585;28;20038;-77
2020/12/11 01:44:24;;;;;;;45.28;18.50;;;;;;;3.50;90.83;99578.63;4993251;28;20085;-77
2020/12/11 01:46:50;;;;;;;40.67;17.40;;;;;;;3.51;90.09;99582.13;4959960;28;20129;-77
2020/12/11 01:49:16;;;;;;;43.60;18.42;;;;;;;3.35;90.49;99568.69;4993015;28;20038;-78
2020/12/11 01:51:44;;;;;;;48.80;20.17;;;;;;;3.36;90.91;99584.44;4993770;28;20042;-78
2020/12/11 01:54:09;;;;;;;51.20;19.92;;;;;;;3.42;91.11;99584.22;4993582;28;20108;-78
2020/12/11 01:57:05;;;;;;;53.28;20.40;;;;;;;3.27;91.89;99576.91;4996616;28;20515;-76
2020/12/11 01:59:39;;;;;;;53.70;21.20;;;;;;;3.15;92.31;99567.75;4971720;28;20503;-78
2020/12/11 02:02:05;;;;;;;50.63;19.77;;;;;;;2.87;92.71;99519.72;4980014;28;20053;-78
2020/12/11 02:04:35;;;;;;;63.25;21.90;;;;;;;3.11;92.88;99586.38;4996841;28;20038;-79
2020/12/11 02:07:01;;;;;;;59.38;21.00;;;;;;;3.06;93.17;99578.66;4980251;28;20049;-79
2020/12/11 02:09:27;;;;;;;50.33;19.55;;;;;;;3.09;93.19;99589.09;4996667;28;20034;-77
2020/12/11 02:11:53;;;;;;;50.33;21.25;;;;;;;3.08;93.13;99576.81;4996800;28;20391;-79
2020/12/11 02:14:18;;;;;;;49.75;20.45;;;;;;;3.01;93.13;99574.50;4996815;28;20027;-79
2020/12/11 02:16:45;;;;;;;50.97;20.35;;;;;;;3.05;92.70;99581.34;4979735;28;20038;-77
2020/12/11 02:19:11;;;;;;;43.45;19.38;;;;;;;3.06;92.45;99580.44;4979320;28;20045;-78
2020/12/11 02:21:37;;;;;;;42.60;18.27;;;;;;;3.07;92.51;99590.03;4979197;28;20045;-76
2020/12/11 02:24:02;;;;;;;44.10;17.90;;;;;;;2.88;92.29;99540.72;4996805;28;20034;-77
2020/12/11 02:26:27;;;;;;;43.95;18.05;;;;;;;3.09;91.89;99589.09;4978681;28;20041;-76
2020/12/11 02:28:53;;;;;;;51.80;19.33;;;;;;;3.02;91.77;99569.16;4979676;28;20476;-74
2020/12/11 02:31:18;;;;;;;42.72;19.02;;;;;;;3.08;91.95;99581.22;4978841;28;20046;-77
2020/12/11 02:33:44;;;;;;;45.00;19.48;;;;;;;3.13;91.84;99589.81;4996819;28;20044;-76
2020/12/11 02:36:09;;;;;;;39.95;19.02;;;;;;;2.95;92.03;99574.75;4962869;28;20041;-76
2020/12/11 02:38:34;;;;;;;44.25;18.85;;;;;;;3.08;91.83;99597.03;4996089;28;20038;-76
2020/12/11 02:41:01;;;;;;;41.63;18.52;;;;;;;2.99;91.87;99582.47;4978765;28;20126;-76
2020/12/11 02:43:28;;;;;;;50.58;18.30;;;;;;;2.87;91.90;99557.44;4996109;28;20034;-75
2020/12/11 02:45:53;;;;;;;43.42;18.60;;;;;;;3.20;91.00;99586.03;4979478;28;20037;-76
2020/12/11 02:48:19;;;;;;;46.20;18.27;;;;;;;3.21;90.80;99598.28;4978850;28;20038;-75
2020/12/11 02:50:45;;;;;;;46.08;19.05;;;;;;;3.15;90.93;99590.59;4978675;28;20069;-74
2020/12/11 02:53:10;;;;;;;41.25;17.00;;;;;;;2.88;90.57;99532.81;4978680;28;20058;-74
2020/12/11 02:55:36;;;;;;;36.03;16.52;;;;;;;3.20;90.17;99580.75;4995949;28;20121;-75
2020/12/11 02:58:02;;;;;;;44.50;18.33;;;;;;;3.15;90.97;99585.34;4996025;28;20039;-75
2020/12/11 03:00:27;;;;;;;37.80;16.73;;;;;;;3.15;90.35;99572.16;4995794;28;20125;-74
2020/12/11 03:02:53;;;;;;;42.58;17.35;;;;;;;3.02;90.88;99566.53;4996252;28;20543;-75
2020/12/11 03:05:18;;;;;;;38.58;17.17;;;;;;;2.87;90.18;99541.66;4995750;28;20044;-78
2020/12/11 03:07:44;;;;;;;42.33;18.05;;;;;;;3.19;90.45;99581.66;4995374;28;20035;-78
2020/12/11 03:10:09;;;;;;;39.63;18.08;;;;;;;3.13;90.58;99580.13;4978399;28;20472;-78
2020/12/11 03:12:34;;;;;;;40.45;17.38;;;;;;;2.94;90.19;99522.97;4978122;28;20037;-77
2020/12/11 03:15:00;;;;;;;41.97;17.90;;;;;;;3.32;89.57;99574.97;4962386;28;20039;-75
2020/12/11 03:17:25;;;;;;;37.72;17.88;;;;;;;3.23;90.22;99569.22;4977844;28;20499;-76
2020/12/11 03:19:51;;;;;;;42.45;18.15;;;;;;;3.09;90.39;99543.44;4978223;28;20042;-75
2020/12/11 03:22:17;;;;;;;42.67;17.67;;;;;;;3.08;90.02;99544.34;4978236;28;20097;-74
2020/12/11 03:24:42;;;;;;;42.80;17.70;;;;;;;3.37;89.57;99570.34;4977806;28;20038;-76
2020/12/11 03:27:08;;;;;;;38.72;16.77;;;;;;;3.39;89.06;99576.44;4962178;28;20050;-76
2020/12/11 03:29:33;;;;;;;40.17;16.67;;;;;;;3.32;89.78;99577.59;4995040;28;20408;-75
2020/12/11 03:31:59;;;;;;;39.88;16.90;;;;;;;3.26;89.50;99563.81;4977848;28;20053;-75
2020/12/11 03:34:24;;;;;;;36.80;18.05;;;;;;;3.08;90.14;99560.13;4994936;28;20032;-75
2020/12/11 03:36:49;;;;;;;37.47;16.50;;;;;;;2.97;89.68;99531.59;4961689;28;20117;-76
2020/12/11 03:39:15;;;;;;;37.40;16.60;;;;;;;3.25;89.76;99578.75;4995135;28;20026;-75
2020/12/11 03:41:40;;;;;;;34.85;16.08;;;;;;;3.26;89.59;99577.84;4961504;28;20030;-74
2020/12/11 03:44:06;;;;;;;36.45;16.23;;;;;;;3.20;89.99;99575.47;4978323;28;20054;-76
2020/12/11 03:46:31;;;;;;;38.83;16.45;;;;;;;3.23;89.77;99572.72;4961495;28;20487;-76
2020/12/11 03:48:57;;;;;;;32.85;16.52;;;;;;;3.21;89.18;99571.06;4994982;28;20038;-75
2020/12/11 03:51:23;;;;;;;37.85;16.17;;;;;;;3.15;89.60;99551.06;4994938;28;20038;-75
2020/12/11 03:53:49;;;;;;;31.90;15.88;;;;;;;3.17;89.33;99570.31;4977285;28;20051;-76
2020/12/11 03:56:15;;;;;;;36.17;16.38;;;;;;;3.16;89.62;99569.44;4977891;28;20026;-77
2020/12/11 03:58:41;;;;;;;31.70;15.98;;;;;;;3.05;89.94;99555.00;4977312;28;20125;-77
2020/12/11 04:01:11;;;;;;;31.20;15.98;;;;;;;3.23;89.57;99575.34;4994780;28;20516;-77
2020/12/11 04:03:37;;;;;;;34.08;15.80;;;;;;;3.20;89.52;99564.94;4994485;28;20104;-76
2020/12/11 04:06:10;;;;;;;32.03;14.93;;;;;;;3.23;88.93;99575.34;4994648;28;20479;-75
2020/12/11 04:08:37;;;;;;;34.20;15.82;;;;;;;3.34;88.52;99572.25;4977026;28;20121;-76
2020/12/11 04:11:08;;;;;;;29.95;15.35;;;;;;;3.19;88.82;99552.69;4994742;28;20038;-76
2020/12/11 04:13:33;;;;;;;35.47;16.70;;;;;;;3.07;88.57;99537.34;4994261;28;20431;-77
2020/12/11 04:16:00;;;;;;;32.88;16.73;;;;;;;3.19;89.55;99571.13;4994435;28;20030;-75
2020/12/11 04:18:25;;;;;;;32.92;15.75;;;;;;;3.25;89.02;99568.22;4993431;28;20057;-76
2020/12/11 04:20:51;;;;;;;32.33;15.77;;;;;;;3.26;89.15;99575.22;4994417;28;20034;-75
2020/12/11 04:23:16;;;;;;;32.20;16.00;;;;;;;3.18;89.15;99569.38;4976889;28;20480;-74
2020/12/11 04:25:41;;;;;;;31.27;15.68;;;;;;;3.02;89.55;99539.34;4976768;28;20034;-77
2020/12/11 04:28:07;;;;;;;33.25;16.77;;;;;;;3.31;88.38;99565.34;4976858;28;20038;-76
2020/12/11 04:30:32;;;;;;;30.40;15.52;;;;;;;3.13;88.35;99527.44;4993809;28;20110;-77
2020/12/11 04:32:57;;;;;;;53.45;24.27;;;;;;;3.43;87.75;99564.81;4994171;28;20400;-76
2020/12/11 04:35:23;;;;;;;62.30;27.63;;;;;;;3.49;87.94;99566.34;4976883;28;20499;-77
2020/12/11 04:37:48;;;;;;;30.95;16.35;;;;;;;3.42;87.94;99549.94;4993584;28;20506;-76
2020/12/11 04:40:18;;;;;;;30.92;15.80;;;;;;;3.48;87.90;99564.66;4994149;28;20034;-76
2020/12/11 04:42:47;;;;;;;26.58;14.80;;;;;;;3.29;88.39;99563.69;4993830;28;20037;-77
2020/12/11 04:45:18;;;;;;;30.60;15.65;;;;;;;3.32;87.57;99561.78;4976769;28;20039;-76
2020/12/11 04:47:45;;;;;;;31.75;16.08;;;;;;;3.26;88.27;99559.38;4976328;28;20034;-76
2020/12/11 04:50:12;;;;;;;31.75;15.10;;;;;;;3.27;88.85;99565.53;4976933;28;20038;-75
2020/12/11 04:52:43;;;;;;;31.55;15.25;;;;;;;3.23;88.77;99567.44;4993779;28;20038;-77
2020/12/11 04:55:21;;;;;;;33.92;16.38;;;;;;;3.22;89.23;99563.09;4960707;28;20042;-78
2020/12/11 04:57:51;;;;;;;27.77;14.43;;;;;;;3.19;89.18;99568.50;4993416;28;20038;-78
2020/12/11 05:00:20;;;;;;;28.20;14.77;;;;;;;3.27;88.38;99563.75;4976853;28;20034;-76
2020/12/11 05:02:47;;;;;;;35.97;16.88;;;;;;;3.24;88.96;99560.38;4993522;28;20040;-75
2020/12/11 05:05:15;;;;;;;29.15;15.70;;;;;;;3.42;88.07;99554.34;4976615;28;20480;-75
2020/12/11 05:07:41;;;;;;;26.35;14.82;;;;;;;3.51;87.54;99563.66;4976182;28;20118;-76
2020/12/11 05:10:08;;;;;;;31.88;15.38;;;;;;;3.54;87.05;99568.78;4993771;28;20034;-74
2020/12/11 05:12:35;;;;;;;28.90;15.57;;;;;;;3.45;87.61;99564.75;4993393;28;20058;-75
2020/12/11 05:15:05;;;;;;;25.55;14.45;;;;;;;3.61;86.68;99565.84;4976242;28;20061;-75
2020/12/11 05:17:34;;;;;;;27.25;14.40;;;;;;;3.36;87.39;99563.34;4993064;28;20042;-76
2020/12/11 05:20:00;;;;;;;28.52;14.32;;;;;;;3.38;87.83;99573.88;4976606;28;20395;-75
2020/12/11 05:22:31;;;;;;;32.28;15.25;;;;;;;3.42;87.69;99572.81;4993788;28;20066;-76
2020/12/11 05:24:57;;;;;;;32.88;15.05;;;;;;;3.35;88.15;99569.56;4977765;28;20057;-79
2020/12/11 05:27:33;;;;;;;26.35;14.07;;;;;;;3.22;87.28;99565.72;4977385;28;20142;-77
2020/12/11 05:30:12;;;;;;;35.30;15.20;;;;;;;3.36;86.93;99568.63;4996332;28;20041;-77
2020/12/11 05:32:39;;;;;;;33.83;15.38;;;;;;;3.34;87.83;99570.47;4979811;28;20039;-78
2020/12/11 05:35:07;;;;;;;28.55;15.63;;;;;;;3.41;86.91;99566.69;4997812;28;20454;-77
2020/12/11 05:38:01;;;;;;;31.55;15.82;;;;;;;3.38;88.39;99574.72;4979597;28;20483;-76
2020/12/11 05:40:40;;;;;;;31.27;15.50;;;;;;;3.37;88.24;99575.63;4997229;28;20062;-77
2020/12/11 05:43:05;;;;;;;31.13;15.50;;;;;;;3.26;88.61;99564.66;4980061;28;20034;-76
2020/12/11 05:45:34;;;;;;;29.02;14.95;;;;;;;3.33;87.95;99591.63;4979491;28;20035;-76
2020/12/11 05:48:04;;;;;;;26.60;13.88;;;;;;;3.32;88.18;99590.78;4964009;28;20038;-78
2020/12/11 05:50:30;;;;;;;27.77;14.93;;;;;;;3.26;86.79;99548.84;4996961;28;20026;-78
2020/12/11 05:52:56;;;;;;;23.63;13.50;;;;;;;3.47;86.28;99583.16;4996760;28;20034;-78
2020/12/11 05:55:22;;;;;;;25.48;14.35;;;;;;;3.54;85.62;99584.63;4979976;28;20074;-78
2020/12/11 05:57:54;;;;;;;25.05;14.80;;;;;;;3.37;86.74;99588.78;4996708;28;20030;-78
2020/12/11 06:00:20;;;;;;;25.60;14.27;;;;;;;3.22;87.80;99584.16;4997017;28;20060;-78
2020/12/11 06:02:48;;;;;;;27.23;14.77;;;;;;;2.99;88.13;99548.22;4996599;28;20476;-78
2020/12/11 06:05:18;;;;;;;28.23;15.57;;;;;;;3.26;87.82;99590.16;4979435;28;20431;-77
2020/12/11 06:07:45;;;;;;;30.88;15.75;;;;;;;3.24;87.42;99598.13;4979405;28;20134;-78
2020/12/11 06:10:16;;;;;;;37.92;17.73;;;;;;;3.23;88.15;99590.31;4963226;28;20435;-76
2020/12/11 06:12:42;;;;;;;25.95;14.40;;;;;;;3.22;87.75;99581.53;4996555;28;20083;-76
2020/12/11 06:15:34;;;;;;;26.13;14.90;;;;;;;3.28;87.40;99580.41;4996796;28;20113;-76
2020/12/11 06:18:11;;;;;;;27.85;14.70;;;;;;;3.04;87.92;99550.66;4996761;28;20446;-74
2020/12/11 06:20:37;;;;;;;27.38;15.02;;;;;;;3.23;88.25;99593.78;4996388;28;20396;-75
2020/12/11 06:23:23;;;;;;;30.13;15.30;;;;;;;3.20;87.74;99591.28;4996511;28;20030;-75
2020/12/11 06:25:54;;;;;;;28.10;15.90;;;;;;;3.14;88.64;99570.44;4996299;28;20065;-74
2020/12/11 06:28:42;;;;;;;29.10;15.75;;;;;;;3.23;88.90;99591.16;4997082;28;20034;-74
2020/12/11 06:31:18;;;;;;;26.02;14.73;;;;;;;3.24;88.89;99571.78;4996977;28;20464;-75
2020/12/11 06:33:52;;;;;;;28.05;15.52;;;;;;;3.10;88.50;99546.00;4996177;28;20395;-77
2020/12/11 06:36:18;;;;;;;25.65;14.95;;;;;;;3.20;88.12;99567.56;4979024;28;20479;-74
2020/12/11 06:38:55;;;;;;;30.58;14.98;;;;;;;3.31;87.81;99567.13;4978615;28;20034;-74
2020/12/11 06:41:27;;;;;;;26.30;15.10;;;;;;;3.44;87.43;99569.19;4995602;28;20069;-75
2020/12/11 06:43:53;;;;;;;33.33;16.30;;;;;;;3.40;87.59;99562.31;4978643;28;20427;-76
2020/12/11 06:46:21;;;;;;;25.92;15.43;;;;;;;3.32;86.79;99532.78;4979084;28;20038;-75
2020/12/11 06:49:10;;;;;;;29.42;16.35;;;;;;;3.45;87.81;99573.53;4995848;28;20046;-77
2020/12/11 06:51:42;;;;;;;29.02;14.90;;;;;;;3.43;88.08;99570.09;4996012;28;20168;-76
2020/12/11 06:54:07;;;;;;;30.35;15.85;;;;;;;3.47;86.67;99562.06;4978300;28;20504;-76
2020/12/11 06:56:41;;;;;;;25.65;15.40;;;;;;;3.57;86.94;99568.66;4995946;28;20084;-78
2020/12/11 06:59:23;;;;;;;29.67;15.73;;;;;;;3.52;86.93;99575.91;4996254;28;20062;-77
2020/12/11 07:01:55;;;;;;;30.40;15.52;;;;;;;3.20;86.84;99525.41;4978516;28;20070;-78
2020/12/11 07:04:21;;;;;;;29.45;15.05;;;;;;;3.31;87.24;99541.63;4996169;28;20034;-76
2020/12/11 07:06:51;;;;;;;27.60;14.93;;;;;;;3.40;88.09;99551.78;4978347;28;20037;-76
2020/12/11 07:09:17;;;;;;;29.65;15.93;;;;;;;3.15;87.86;99524.72;4978954;28;20081;-77
2020/12/11 07:11:43;;;;;;;29.75;16.00;;;;;;;3.30;88.14;99566.28;4995515;28;20039;-77
2020/12/11 07:14:09;;;;;;;29.27;16.50;;;;;;;3.35;88.19;99569.56;4995920;28;20038;-74
2020/12/11 07:16:40;;;;;;;28.08;15.93;;;;;;;3.32;88.29;99571.47;4995811;28;20034;-75
2020/12/11 07:19:06;;;;;;;27.58;16.02;;;;;;;3.28;87.99;99552.31;4995793;28;20364;-74
2020/12/11 07:21:32;;;;;;;30.23;14.95;;;;;;;3.31;88.28;99560.06;4995845;28;20041;-75
2020/12/11 07:23:58;;;;;;;27.15;15.45;;;;;;;3.18;87.99;99535.13;4978304;28;20085;-75
2020/12/11 07:26:23;;;;;;;29.00;15.55;;;;;;;3.27;88.17;99540.00;4978072;28;20391;-75
2020/12/11 07:29:01;;;;;;;28.88;16.48;;;;;;;3.30;88.14;99545.19;4995442;28;20038;-81
2020/12/11 07:31:26;;;;;;;27.67;15.43;;;;;;;3.50;88.02;99572.50;4978389;28;20054;-77
2020/12/11 07:33:52;;;;;;;25.75;15.10;;;;;;;3.36;88.15;99549.31;4995474;28;20038;-75
2020/12/11 07:36:17;;;;;;;28.13;15.32;;;;;;;3.47;87.56;99567.31;4978009;28;20034;-73
2020/12/11 07:38:43;;;;;;;31.38;16.00;;;;;;;3.49;87.90;99569.00;4995104;28;20141;-74
2020/12/11 07:41:10;;;;;;;29.40;16.20;;;;;;;3.36;87.55;99550.19;4995247;28;20033;-75
2020/12/11 07:43:45;;;;;;;29.70;15.82;;;;;;;3.51;87.25;99574.19;4995292;28;20117;-74
2020/12/11 07:46:11;;;;;;;28.23;14.38;;;;;;;3.45;86.61;99565.63;4961814;28;20037;-74
2020/12/11 07:48:48;;;;;;;29.30;14.52;;;;;;;3.54;86.61;99568.78;4978021;28;20053;-75
2020/12/11 07:51:13;;;;;;;31.42;16.00;;;;;;;3.53;86.50;99557.38;4995158;28;20034;-76
2020/12/11 07:53:43;;;;;;;29.45;16.40;;;;;;;3.54;87.44;99568.78;4977495;28;20058;-75
2020/12/11 07:56:09;;;;;;;29.40;15.43;;;;;;;3.58;87.21;99559.84;4995098;28;20125;-75
2020/12/11 07:58:34;;;;;;;21.92;13.00;;;;;;;3.63;85.44;99565.75;4994995;28;20042;-75
2020/12/11 08:01:01;;;;;;;25.45;13.63;;;;;;;3.57;85.15;99558.09;4977388;28;20404;-75
2020/12/11 08:03:27;;;;;;;27.00;15.00;;;;;;;3.52;86.12;99546.91;4994944;28;20395;-75
2020/12/11 08:05:53;;;;;;;23.38;13.73;;;;;;;3.68;84.52;99574.34;4994811;28;20041;-75
2020/12/11 08:08:26;;;;;;;23.98;12.68;;;;;;;3.34;83.87;99536.22;4995019;28;20105;-74
2020/12/11 08:10:51;;;;;;;24.25;12.88;;;;;;;3.47;84.01;99576.09;4977469;28;20034;-75
2020/12/11 08:13:17;;;;;;;22.92;12.00;;;;;;;3.39;83.50;99565.88;4977302;28;20053;-75
2020/12/11 08:15:44;;;;;;;21.45;11.65;;;;;;;3.42;82.86;99568.38;4977258;28;20035;-77
2020/12/11 08:18:13;;;;;;;20.02;12.02;;;;;;;3.49;83.43;99578.69;4976993;28;20039;-76
2020/12/11 08:20:48;;;;;;;22.08;12.95;;;;;;;3.51;83.61;99551.31;4994418;28;20038;-76
2020/12/11 08:23:39;;;;;;;21.40;12.07;;;;;;;3.58;82.80;99565.13;4977145;28;20033;-75
2020/12/11 08:26:14;;;;;;;24.88;14.07;;;;;;;3.61;83.62;99565.84;4969707;28;20483;-75
2020/12/11 08:28:40;;;;;;;27.80;14.43;;;;;;;3.64;82.80;99570.97;4994628;28;20042;-76
2020/12/11 08:31:26;;;;;;;25.63;13.63;;;;;;;3.66;82.79;99563.84;4994177;28;20061;-75
2020/12/11 08:34:13;;;;;;;28.42;13.93;;;;;;;3.70;83.19;99564.59;4994014;28;20435;-75
2020/12/11 08:36:40;;;;;;;26.95;13.85;;;;;;;3.88;82.27;99563.78;4976860;28;20030;-74
2020/12/11 08:39:18;;;;;;;26.95;14.02;;;;;;;3.85;82.41;99560.41;4976753;28;20041;-75
2020/12/11 08:47:37;;;;;;;21.77;12.20;;;;;;;3.73;82.26;99506.41;4994249;28;20034;-75
2020/12/11 08:50:18;;;;;;;22.10;12.93;;;;;;;3.93;82.17;99535.41;4993937;28;20125;-74
2020/12/11 08:52:44;;;;;;;20.08;12.48;;;;;;;3.92;81.81;99525.78;4993825;28;20068;-77
2020/12/11 08:55:09;;;;;;;18.90;12.02;;;;;;;3.81;81.15;99498.16;4994007;28;20062;-75
2020/12/11 08:57:35;;;;;;;20.50;11.82;;;;;;;4.00;81.65;99521.03;4976595;28;20030;-75
2020/12/11 09:00:00;;;;;;;22.77;12.07;;;;;;;3.86;81.12;99497.06;4993734;28;20038;-75
2020/12/11 09:02:26;;;;;;;19.48;11.70;;;;;;;4.14;80.69;99527.44;4994018;28;20393;-75
2020/12/11 09:04:52;;;;;;;21.88;12.15;;;;;;;4.12;80.02;99524.03;4975839;28;20038;-74
2020/12/11 09:07:17;;;;;;;20.05;11.40;;;;;;;4.08;80.15;99514.56;4976793;28;20124;-74
2020/12/11 09:09:42;;;;;;;19.67;12.05;;;;;;;3.94;80.37;99494.91;4993839;28;20530;-75
2020/12/11 09:12:08;;;;;;;19.92;11.73;;;;;;;4.11;80.71;99522.31;4993465;28;20085;-75
2020/12/11 09:14:34;;;;;;;24.23;13.05;;;;;;;4.12;80.45;99519.59;4993614;28;20034;-75
2020/12/11 09:16:59;;;;;;;25.15;13.38;;;;;;;4.20;80.15;99537.75;4976198;28;20057;-76
2020/12/11 09:19:24;;;;;;;23.55;12.95;;;;;;;4.02;80.34;99495.41;4976437;28;20058;-75
2020/12/11 09:21:50;;;;;;;26.67;12.43;;;;;;;4.32;80.78;99531.88;4993678;28;20034;-76
2020/12/11 09:24:15;;;;;;;20.67;12.63;;;;;;;4.25;80.21;99526.06;4993896;28;20479;-75
2020/12/11 09:26:40;;;;;;;23.70;13.43;;;;;;;4.22;79.94;99526.19;4993785;28;20030;-75
2020/12/11 09:31:35;;;;;;;25.38;13.63;;;;;;;4.45;79.30;99514.56;4976785;28;20066;-75
2020/12/11 09:34:01;;;;;;;27.38;14.90;;;;;;;4.42;79.54;99521.75;4976202;28;20388;-75
2020/12/11 09:36:26;;;;;;;25.67;14.02;;;;;;;4.47;79.57;99525.91;4976303;28;20041;-75
2020/12/11 09:38:52;;;;;;;25.73;15.15;;;;;;;4.33;80.14;99507.19;4993018;28;20042;-75
2020/12/11 09:41:23;;;;;;;26.60;14.20;;;;;;;4.33;80.38;99504.56;4993573;28;20431;-75
2020/12/11 09:44:17;;;;;;;21.45;13.32;;;;;;;4.34;79.39;99492.22;4975809;28;20038;-76
2020/12/11 09:46:53;;;;;;;33.00;15.63;;;;;;;4.39;79.35;99501.66;4991980;28;20042;-75
2020/12/11 09:49:23;;;;;;;26.25;15.05;;;;;;;4.44;79.75;99502.31;4993623;28;20165;-75
2020/12/11 09:52:15;;;;;;;23.55;14.40;;;;;;;4.46;79.56;99505.72;4961326;28;20039;-76
2020/12/11 09:54:40;;;;;;;24.70;14.40;;;;;;;4.29;80.23;99458.13;4975716;28;20477;-75
2020/12/11 09:57:05;;;;;;;25.25;14.68;;;;;;;4.51;79.23;99479.94;4993207;28;20125;-75
2020/12/11 09:59:44;;;;;;;26.52;14.95;;;;;;;4.20;79.29;99429.50;4976258;28;20499;-75
2020/12/11 10:02:22;;;;;;;28.00;14.80;;;;;;;4.49;78.96;99484.44;4975666;28;20037;-76
2020/12/11 10:04:47;;;;;;;23.10;14.45;;;;;;;4.36;78.77;99477.19;4993254;28;20038;-75
2020/12/11 10:07:14;;;;;;;25.08;15.95;;;;;;;4.30;79.14;99470.38;4993126;28;20494;-75
2020/12/11 10:09:42;;;;;;;25.95;15.20;;;;;;;4.16;79.72;99449.06;4975653;28;20034;-75
2020/12/11 10:12:08;;;;;;;24.95;15.50;;;;;;;4.23;79.38;99469.81;4993140;28;20061;-74
2020/12/11 10:14:45;;;;;;;25.15;14.60;;;;;;;4.23;78.88;99453.13;4976072;28;20045;-75
2020/12/11 10:17:10;;;;;;;27.23;15.23;;;;;;;4.33;79.38;99459.69;4980079;28;20042;-76
2020/12/11 10:19:36;;;;;;;25.33;15.00;;;;;;;4.35;79.24;99467.56;4997148;28;20460;-75
2020/12/11 10:22:02;;;;;;;23.40;14.18;;;;;;;4.32;79.80;99465.88;4996662;28;20034;-75
2020/12/11 10:24:28;;;;;;;26.38;14.38;;;;;;;4.31;79.35;99466.81;4979444;28;20066;-75
2020/12/11 10:26:53;;;;;;;27.60;15.82;;;;;;;4.23;80.09;99459.25;4963243;28;20042;-75
2020/12/11 10:29:18;;;;;;;25.10;14.75;;;;;;;4.15;79.88;99450.88;4947249;28;20038;-75
2020/12/11 10:31:45;;;;;;;24.58;14.80;;;;;;;4.19;80.10;99462.97;4979147;28;20038;-75
2020/12/11 10:34:15;;;;;;;27.55;15.63;;;;;;;4.20;80.08;99463.81;4996488;28;20155;-75
2020/12/11 10:36:42;;;;;;;24.92;15.05;;;;;;;4.22;80.47;99472.53;4979465;28;20030;-76
2020/12/11 10:39:08;;;;;;;27.27;16.00;;;;;;;4.06;80.76;99450.44;4962824;28;20034;-74
2020/12/11 10:41:34;;;;;;;27.02;15.90;;;;;;;4.11;81.00;99458.97;4979270;28;20045;-75
2020/12/11 10:44:00;;;;;;;30.50;16.02;;;;;;;4.14;80.87;99458.81;4996206;28;20030;-75
2020/12/11 10:46:25;;;;;;;28.02;16.35;;;;;;;3.94;80.41;99422.81;4962608;28;20088;-75
2020/12/11 10:48:50;;;;;;;28.95;16.40;;;;;;;4.18;81.24;99450.72;4996229;28;20089;-75
2020/12/11 10:51:17;;;;;;;27.73;16.42;;;;;;;4.11;80.54;99432.59;4996229;28;20037;-75
2020/12/11 10:53:44;;;;;;;30.33;15.85;;;;;;;3.97;80.80;99415.63;4996370;28;20054;-74
2020/12/11 10:56:10;;;;;;;27.15;14.77;;;;;;;4.08;79.01;99406.34;4978820;28;20062;-75
2020/12/11 10:58:37;;;;;;;24.45;14.43;;;;;;;4.38;78.50;99441.84;4995921;28;20129;-75
2020/12/11 11:01:07;;;;;;;24.17;13.93;;;;;;;4.28;78.38;99435.28;4995710;28;20042;-75
2020/12/11 11:03:33;;;;;;;21.70;13.77;;;;;;;4.12;78.66;99423.72;4996647;28;20069;-75
2020/12/11 11:06:11;;;;;;;28.83;14.77;;;;;;;4.23;78.46;99447.84;4962505;28;20058;-74
2020/12/11 11:08:55;;;;;;;22.48;13.88;;;;;;;4.12;77.87;99392.06;4996163;28;20049;-74
2020/12/11 11:11:22;;;;;;;25.08;14.73;;;;;;;4.01;80.01;99389.94;4995864;28;20436;-75
2020/12/11 11:29:57;;;;;;;24.60;14.77;;;;;;;4.39;77.65;99396.03;4995471;28;20034;-74
2020/12/11 11:32:22;;;;;;;23.23;13.50;;;;;;;4.34;78.07;99387.47;4978138;28;20039;-75
2020/12/11 11:34:48;;;;;;;21.95;13.43;;;;;;;4.28;78.56;99371.94;4995426;28;20030;-75
2020/12/11 11:37:14;;;;;;;21.73;13.10;;;;;;;4.34;77.77;99395.38;4995407;28;20030;-75
2020/12/11 11:39:39;;;;;;;22.05;13.63;;;;;;;4.27;78.47;99383.44;4977979;28;20387;-76
2020/12/11 11:42:05;;;;;;;30.98;17.05;;;;;;;4.46;78.71;99396.59;4995282;28;20034;-76
2020/12/11 11:47:14;;;;;;;20.85;13.50;;;;;;;4.42;76.76;99389.72;4994918;28;20065;-75
2020/12/11 11:52:27;;;;;;;24.42;14.70;;;;;;;4.15;79.07;99365.50;4977762;28;20042;-76
2020/12/11 11:54:53;;;;;;;27.35;15.15;;;;;;;4.26;79.37;99384.34;4974552;28;20133;-75
2020/12/11 11:57:18;;;;;;;23.48;14.30;;;;;;;4.30;79.57;99396.47;4957799;28;20118;-74